San Francisco International, CA

1:14 AM PDT on August 30, 2014 (GMT -0700)
San Francisco International | Change Station
CLOSE
Current Station
Airport
Location: San Francisco,
Elevation: 16 ft
Nearby Weather Stations

Elev 16 ft 37.62 °N, 122.37 °W | Updated 18 minutes ago

Scattered Clouds
Scattered Clouds
64 °F
Feels Like 64 °F
N
7
Wind Variable Wind from West

Today
High -- | Low -- °F
--% Chance of Precip.
Yesterday
High -- | Low -- °F
Precip. -- in
6:38 AM 7:41 PM
Waxing Crescent, 20% visible
Pressure 29.91 in
Visibility 10.0 miles
Clouds Few 700 ft
Scattered Clouds 18000 ft
Dew Point 60 °F
Humidity 87%
Rainfall 0.00 in
Snow Depth Not available.
UV 0 out of 12
Pollen 7.40 out of 12
Ozone Good
PM2.5 Good
Flu Activity Not available.
METAR KSFO 300756Z 27006KT 10SM FEW007 SCT180 18/16 A2991 RMK AO2 SLP128 T01780156 402170156 $

More Conditions Fewer Conditions

Pressure 29.91 in
Visibility 10.0 miles
Clouds Few 700 ft
Scattered Clouds 18000 ft
Dew Point 60 °F
Humidity 87%
Rainfall 0.00 in
Snow Depth Not available.
UV 0 out of 12
Pollen 7.40 out of 12
Ozone Good
PM2.5 Good
Flu Activity Not available.
METAR KSFO 300756Z 27006KT 10SM FEW007 SCT180 18/16 A2991 RMK AO2 SLP128 T01780156 402170156 $

More Conditions Fewer Conditions

10-Day Weather Forecast

Almanac

Astronomy

Aug. 30, 2014 Rise Set
Actual Time 6:38 AM PDT 7:41 PM PDT
Civil Twilight 6:11 AM PDT 8:08 PM PDT
Nautical Twilight 5:39 AM PDT 8:40 PM PDT
Astronomical Twilight 5:05 AM PDT 9:13 PM PDT
Moon 11:24 AM PDT 10:25 PM PDT
Length of Visible Light 13h 56m
Length of Day
13h 03m
Tomorrow will be 2m 18s shorter.
Waxing Crescent, 20% of the Moon is Illuminated
Today
Waxing Crescent
Sep 2
First Quarter
Sep 8
Full
Sep 15
Last Quarter
Sep 24
New

Today's Extremes

State Highs State Lows

Community

WunderPhotos

Upload Photos

1,748,468 photos uploaded!

Nearby

Air Quality

  Air Quality AQ Index Pollutant
Yesterday Good
PM2.5
Yesterday Good
OZONE
Current Good
PM2.5
Current Good
OZONE
Friday Good
PM2.5
Saturday Good
PM2.5
Sunday Good
OZONE
Monday Good
OZONE
Tuesday Good
PM2.5
Wednesday Good
OZONE

Snow Depth

Station Depth Elevation
Blue Lakes 0 in 8000 ft
Forestdale Creek 0 in 8029 ft
Echo Peak 1 in 7800 ft
Rubicon #2 0 in 7500 ft
Leavitt Lake 0 in 9400 ft

Earthquake Activity

City Distance Mag. Time & Date
Ridgemark, California 86 miles 3.4 4:32 PM PDT
2014-08-29
The Geysers, California 86 miles 2.7 2:53 PM PDT
2014-08-29
Ridgemark, California 86 miles 3.0 2:44 PM PDT
2014-08-29
Napa, California 43 miles 2.6 11:57 AM PDT
2014-08-27
Minimum magnitude displayed is 2.5.

Coastal Water Temperatures

Place Temperature
No Stations Reporting

Nearby Weather Stations